createdAt,value
2019-05-17T00:01:18.650Z,100.00
2019-05-17T00:03:51.826Z,100.00
2019-05-17T00:06:27.570Z,100.00
2019-05-17T00:09:01.268Z,100.00
2019-05-17T00:11:36.775Z,100.00
2019-05-17T00:14:10.641Z,100.00
2019-05-17T00:16:46.797Z,100.00
2019-05-17T00:19:19.407Z,100.00
2019-05-17T00:21:52.393Z,100.00
2019-05-17T00:24:26.639Z,100.00
2019-05-17T00:27:00.688Z,100.00
2019-05-17T00:29:33.974Z,100.00
2019-05-17T00:32:07.061Z,100.00
2019-05-17T00:34:40.815Z,100.00
2019-05-17T00:37:17.374Z,100.00
2019-05-17T00:39:51.200Z,100.00
2019-05-17T00:42:26.414Z,100.00
2019-05-17T00:45:00.031Z,100.00
2019-05-17T00:47:33.385Z,100.00
2019-05-17T00:50:07.689Z,100.00
2019-05-17T00:52:41.433Z,100.00
2019-05-17T00:55:14.783Z,100.00
2019-05-17T00:57:48.127Z,100.00
2019-05-17T01:00:21.533Z,100.00
2019-05-17T01:02:54.631Z,100.00
2019-05-17T01:05:27.717Z,100.00
2019-05-17T01:08:01.104Z,100.00
2019-05-17T01:10:36.682Z,100.00
2019-05-17T01:13:09.404Z,100.00
2019-05-17T01:15:42.193Z,100.00
2019-05-17T01:18:16.236Z,100.00
2019-05-17T01:20:48.998Z,100.00
2019-05-17T01:23:21.982Z,100.00
2019-05-17T01:25:56.698Z,100.00
2019-05-17T01:28:30.403Z,100.00
2019-05-17T01:31:06.483Z,100.00
2019-05-17T01:33:39.764Z,100.00
2019-05-17T01:36:12.951Z,100.00
2019-05-17T01:38:46.917Z,100.00
2019-05-17T01:41:19.962Z,100.00
2019-05-17T01:43:53.163Z,100.00
2019-05-17T01:46:26.512Z,100.00
2019-05-17T01:49:00.381Z,100.00
2019-05-17T01:51:34.088Z,100.00
2019-05-17T01:54:07.396Z,100.00
2019-05-17T01:56:40.721Z,100.00
2019-05-17T01:59:13.726Z,100.00
2019-05-17T02:01:48.690Z,100.00
2019-05-17T02:04:21.659Z,100.00
2019-05-17T02:06:53.857Z,100.00
2019-05-17T02:09:37.248Z,100.00
2019-05-17T02:12:02.130Z,100.00
2019-05-17T02:14:37.422Z,100.00
2019-05-17T02:17:10.670Z,100.00
2019-05-17T02:19:46.450Z,100.00
2019-05-17T02:22:18.386Z,100.00
2019-05-17T02:24:52.821Z,100.00
2019-05-17T02:27:32.155Z,100.00
2019-05-17T02:30:02.614Z,100.00
2019-05-17T02:32:37.648Z,100.00
2019-05-17T02:35:14.402Z,100.00
2019-05-17T02:37:45.616Z,100.00
2019-05-17T02:40:18.759Z,100.00
2019-05-17T16:33:51.658Z,73.67
2019-05-17T16:36:25.203Z,75.83
2019-05-17T16:38:57.966Z,74.72
2019-05-17T16:41:31.620Z,74.61
2019-05-17T16:44:05.112Z,75.54
2019-05-17T16:46:38.941Z,79.15
2019-05-17T16:49:12.498Z,79.45
2019-05-17T16:51:45.474Z,81.05
2019-05-17T16:54:18.811Z,79.99
2019-05-17T16:56:52.228Z,80.10
2019-05-17T16:59:25.793Z,81.52
2019-05-17T17:01:58.993Z,82.70
2019-05-17T17:04:32.496Z,82.04
2019-05-17T17:07:07.158Z,83.53
2019-05-17T17:09:40.213Z,84.25
2019-05-17T17:12:13.727Z,82.80
2019-05-17T17:14:47.182Z,82.97
2019-05-17T17:17:20.155Z,83.71
2019-05-17T17:19:53.815Z,83.91
2019-05-17T17:22:27.163Z,84.05
2019-05-17T17:25:00.647Z,84.47
2019-05-17T17:27:34.629Z,85.29
2019-05-17T17:30:07.995Z,86.00
2019-05-17T17:32:41.549Z,86.37
2019-05-17T17:35:15.665Z,86.25
2019-05-17T17:37:47.964Z,86.82
2019-05-17T17:40:21.068Z,86.57
2019-05-17T17:42:53.774Z,87.25
2019-05-17T17:45:26.709Z,87.35
2019-05-17T17:48:00.154Z,87.98
2019-05-17T17:50:33.267Z,89.42
2019-05-17T17:53:07.016Z,89.63
2019-05-17T17:55:40.466Z,91.01
2019-05-17T17:58:13.537Z,90.72
2019-05-17T18:00:47.443Z,91.03
2019-05-17T18:03:21.761Z,91.93
2019-05-17T18:05:55.158Z,92.39
2019-05-17T18:08:28.299Z,91.93
2019-05-17T18:11:01.343Z,93.25
2019-05-17T18:13:34.528Z,92.80
2019-05-17T18:16:08.105Z,93.51
2019-05-17T18:18:41.618Z,94.71
2019-05-17T18:21:15.000Z,96.05
2019-05-17T18:23:48.653Z,96.33
2019-05-17T18:26:22.118Z,97.63
2019-05-17T18:28:55.536Z,98.41
2019-05-17T18:31:28.590Z,98.91
2019-05-17T18:34:01.402Z,100.00
2019-05-17T18:36:34.780Z,100.00
2019-05-17T18:39:08.287Z,100.00
2019-05-17T18:41:43.218Z,100.00
2019-05-17T18:44:27.189Z,100.00
2019-05-17T18:46:51.368Z,100.00
2019-05-17T18:49:24.734Z,100.00
2019-05-17T18:51:58.247Z,100.00
2019-05-17T18:54:31.444Z,100.00
2019-05-17T18:57:05.400Z,100.00
2019-05-17T18:59:38.143Z,100.00
2019-05-17T19:02:11.223Z,100.00
2019-05-17T19:04:44.403Z,100.00
2019-05-17T19:07:17.225Z,100.00
2019-05-17T19:09:51.019Z,100.00
2019-05-17T19:12:25.055Z,100.00
2019-05-17T19:15:00.645Z,100.00
2019-05-17T19:17:33.845Z,100.00
2019-05-17T19:20:06.847Z,100.00
2019-05-17T19:22:40.519Z,100.00
2019-05-17T19:25:14.048Z,100.00
2019-05-17T19:27:46.810Z,100.00
2019-05-17T19:30:19.773Z,100.00
2019-05-17T19:32:53.310Z,100.00
2019-05-17T19:35:26.325Z,100.00
2019-05-17T19:38:00.657Z,100.00
2019-05-17T19:40:33.753Z,100.00
2019-05-17T19:43:06.102Z,100.00
2019-05-17T19:45:39.584Z,100.00
2019-05-17T19:48:12.896Z,100.00
2019-05-17T19:50:46.453Z,100.00
2019-05-17T19:53:24.230Z,100.00
2019-05-17T19:55:56.943Z,100.00
2019-05-17T19:58:30.060Z,100.00
2019-05-17T20:01:04.012Z,100.00
2019-05-17T20:03:37.657Z,100.00
2019-05-17T20:06:10.840Z,100.00
2019-05-17T20:08:44.038Z,100.00
2019-05-17T20:11:17.408Z,100.00
2019-05-17T20:13:50.547Z,100.00
2019-05-17T20:16:26.119Z,100.00
2019-05-17T20:18:59.887Z,100.00
2019-05-17T20:21:34.395Z,100.00
2019-05-17T20:24:07.811Z,100.00
2019-05-17T20:26:41.336Z,100.00
2019-05-17T20:29:14.900Z,100.00
2019-05-17T20:31:48.004Z,100.00
2019-05-17T20:34:21.092Z,100.00
2019-05-17T20:36:54.652Z,100.00
2019-05-17T20:39:27.757Z,100.00
2019-05-17T20:42:01.428Z,100.00
2019-05-17T20:44:35.201Z,100.00
2019-05-17T20:47:09.683Z,100.00
2019-05-17T20:49:43.392Z,100.00
2019-05-17T20:52:16.098Z,100.00
2019-05-17T20:54:49.681Z,100.00
2019-05-17T20:57:23.653Z,100.00
2019-05-17T20:59:57.466Z,100.00
2019-05-17T21:02:30.757Z,100.00
2019-05-17T21:05:04.295Z,100.00
2019-05-17T21:07:37.724Z,100.00
2019-05-17T21:10:11.291Z,100.00
2019-05-17T21:12:44.788Z,100.00
2019-05-17T21:15:18.481Z,100.00
2019-05-17T21:17:51.191Z,100.00
2019-05-17T21:20:25.070Z,100.00
2019-05-17T21:22:58.546Z,100.00
2019-05-17T21:25:32.228Z,100.00
2019-05-17T21:28:06.124Z,100.00
2019-05-17T21:30:39.931Z,100.00
2019-05-17T21:33:13.774Z,100.00
2019-05-17T21:35:47.893Z,100.00
2019-05-17T21:38:21.173Z,100.00
2019-05-17T21:40:53.811Z,100.00
2019-05-17T21:43:27.285Z,100.00
2019-05-17T21:46:04.286Z,100.00
2019-05-17T21:48:37.540Z,100.00
2019-05-17T21:51:10.544Z,100.00
2019-05-17T21:53:43.594Z,100.00
2019-05-17T21:56:16.205Z,100.00
2019-05-17T21:58:49.560Z,100.00
2019-05-17T22:01:25.714Z,100.00
2019-05-17T22:03:59.624Z,100.00
2019-05-17T22:06:32.667Z,100.00
2019-05-17T22:09:07.255Z,100.00
2019-05-17T22:11:44.608Z,100.00
2019-05-17T22:14:18.716Z,100.00
2019-05-17T22:16:51.515Z,100.00
2019-05-17T22:19:25.163Z,100.00
2019-05-17T22:21:58.613Z,100.00
2019-05-17T22:24:31.979Z,100.00
2019-05-17T22:27:05.859Z,100.00
2019-05-17T22:29:38.898Z,100.00
2019-05-17T22:32:12.409Z,100.00
2019-05-17T22:34:46.798Z,100.00
2019-05-17T22:37:20.323Z,100.00
2019-05-17T22:39:53.944Z,100.00
2019-05-17T22:42:27.566Z,100.00
2019-05-17T22:45:01.322Z,100.00
2019-05-17T22:47:34.384Z,100.00
2019-05-17T22:50:07.783Z,100.00
2019-05-17T22:52:40.979Z,100.00
2019-05-17T22:55:14.295Z,100.00
2019-05-17T22:57:47.939Z,100.00
2019-05-17T23:00:20.368Z,100.00
2019-05-17T23:02:53.253Z,100.00
2019-05-17T23:05:26.807Z,100.00
2019-05-17T23:08:00.708Z,100.00
2019-05-17T23:10:35.132Z,100.00
2019-05-17T23:13:10.132Z,100.00
2019-05-17T23:16:02.565Z,100.00
2019-05-17T23:18:36.113Z,100.00
2019-05-17T23:21:10.231Z,100.00
2019-05-17T23:23:44.078Z,100.00
2019-05-17T23:26:17.504Z,100.00
2019-05-17T23:28:51.275Z,100.00
2019-05-17T23:31:24.303Z,100.00
2019-05-17T23:33:57.146Z,100.00
2019-05-17T23:36:30.262Z,100.00
2019-05-17T23:39:04.789Z,100.00
2019-05-17T23:41:38.030Z,100.00
2019-05-17T23:44:11.169Z,100.00
2019-05-17T23:46:44.972Z,100.00
2019-05-17T23:49:18.365Z,100.00
2019-05-17T23:51:51.799Z,100.00
2019-05-17T23:54:25.346Z,100.00
2019-05-17T23:56:58.391Z,100.00
2019-05-17T23:59:31.503Z,100.00
